No particular awareness of the weather is required.    There are no Weather-warnings


Meteo18 Weather Cam more information Meteo18 Weather Cam


Thunder radar more information blitzortung!


Rain radar more information rain snow radar


Visit our other weather sites:

Template documentation
and downloads

And another site



Weather Underground History page Text

Daily Summary for July 11, 2017 Units:  English    Metric   Both
« Previous Day
Next Day »
Daily Weekly Monthly Yearly Custom
  High: Low: Average:
Temperature: 73.8 °F 57.6 °F 65.1 °F
Dew Point: 61.2 °F 53.6 °F 57.6 °F
Humidity: 97 % 50 % 79 %
Wind Speed: 17 mph 0 mph 4.3 mph
Wind Gust: 20 mph - -
Wind:- - SW
Pressure: 30.1 in 30 in -
Precipitation: 0.01 in    
Historical Graphs
 
 
Tabular Data for July 11, 2017
Time Temperature Dew Point Pressure Wind Wind Speed Wind Gust Humidity Rainfall Rate (Hourly)
00:02 61.9 °F 60.4 °F 30 in SW 2 mph 4 mph 95 % 0 in
00:07 62.1 °F 61 °F 30 in SW 2 mph 4 mph 96 % 0 in
00:12 61.9 °F 60.8 °F 30 in SW 2 mph 4 mph 96 % 0 in
00:17 62.1 °F 61 °F 30 in SW 3 mph 4 mph 96 % 0 in
00:22 62.2 °F 61.2 °F 30 in SW 2 mph 4 mph 96 % 0 in
00:32 61.7 °F 60.6 °F 30 in WSW 2 mph 5 mph 96 % 0 in
00:37 61.5 °F 60.4 °F 30 in SW 3 mph 4 mph 96 % 0 in
00:42 61.3 °F 60.3 °F 30 in SSW 4 mph 4 mph 96 % 0 in
00:47 61 °F 59.9 °F 30 in SSW 1 mph 6 mph 96 % 0 in
00:52 61.3 °F 60.4 °F 30 in WSW 2 mph 8 mph 97 % 0 in
00:57 61.7 °F 60.8 °F 30 in WSW 3 mph 8 mph 97 % 0 in
01:02 61.9 °F 61 °F 30 in West 3 mph 8 mph 97 % 0 in
01:12 62.1 °F 61.2 °F 30 in Calm   7 mph 97 % 0 in
01:17 62.1 °F 61.2 °F 30 in Calm   6 mph 97 % 0 in
01:22 62.1 °F 61.2 °F 30 in Calm   3 mph 97 % 0 in
01:32 61.9 °F 61 °F 30 in SE 1 mph 1 mph 97 % 0 in
01:42 62.1 °F 61.2 °F 30 in Calm   2 mph 97 % 0 in
01:47 62.1 °F 61.2 °F 30 in SW 1 mph 2 mph 97 % 0 in
01:52 62.1 °F 61.2 °F 30 in Calm   4 mph 97 % 0 in
01:57 62.1 °F 61.2 °F 30 in WSW 2 mph 4 mph 97 % 0 in
02:02 62.1 °F 61.2 °F 30 in Calm   4 mph 97 % 0 in
02:07 61.9 °F 61 °F 30 in SW 3 mph 3 mph 97 % 0 in
02:12 61.9 °F 61 °F 30 in SW 2 mph 3 mph 97 % 0 in
02:17 61.9 °F 61 °F 30 in South 1 mph 4 mph 97 % 0 in
02:22 61.7 °F 60.8 °F 30 in SW 1 mph 4 mph 97 % 0 in
02:27 61.7 °F 60.8 °F 30 in SSW 2 mph 4 mph 97 % 0 in
02:32 61.5 °F 60.6 °F 30 in WSW 3 mph 4 mph 97 % 0 in
02:37 61.5 °F 60.6 °F 30 in WSW 1 mph 4 mph 97 % 0 in
02:42 61.5 °F 60.6 °F 30 in Calm   5 mph 97 % 0 in
02:47 61.5 °F 60.6 °F 30 in WNW 1 mph 5 mph 97 % 0 in
02:52 61.5 °F 60.6 °F 30 in Calm   5 mph 97 % 0 in
02:57 61.3 °F 60.4 °F 30 in Calm   3 mph 97 % 0 in
03:02 61.3 °F 60.4 °F 30 in Calm   3 mph 97 % 0 in
03:12 61.3 °F 60.4 °F 30 in Calm   2 mph 97 % 0 in
03:17 61.3 °F 60.4 °F 30 in Calm   2 mph 97 % 0 in
03:22 61.3 °F 60.4 °F 30 in Calm   2 mph 97 % 0 in
03:27 61.3 °F 60.4 °F 30 in Calm   2 mph 97 % 0 in
03:32 61.3 °F 60.4 °F 30 in Calm   1 mph 97 % 0 in
03:42 61 °F 60.1 °F 30 in SSW 2 mph 5 mph 97 % 0.01 in
03:47 61 °F 60.1 °F 30 in SW 4 mph 8 mph 97 % 0.01 in
03:52 60.8 °F 59.9 °F 30 in Calm   8 mph 97 % 0.01 in
03:57 60.6 °F 59.7 °F 30 in SSW 2 mph 8 mph 97 % 0.01 in
04:02 60.6 °F 59.7 °F 30 in SW 2 mph 6 mph 97 % 0.01 in
04:07 60.3 °F 59.4 °F 30 in Calm   5 mph 97 % 0.01 in
04:12 60.1 °F 59.2 °F 30 in SSW 2 mph 5 mph 97 % 0.01 in
04:17 59.7 °F 58.8 °F 30 in SSW 2 mph 4 mph 97 % 0.01 in
04:22 59.5 °F 58.6 °F 30 in SSW 3 mph 6 mph 97 % 0.01 in
04:27 59.4 °F 58.5 °F 30 in SSW 2 mph 6 mph 97 % 0.01 in
04:32 59.2 °F 58.3 °F 30 in SW 2 mph 6 mph 97 % 0.01 in
04:37 58.8 °F 57.9 °F 30 in SW 2 mph 4 mph 97 % 0 in
04:42 58.6 °F 57.7 °F 30 in SSW 3 mph 3 mph 97 % 0 in
04:47 58.6 °F 57.7 °F 30 in SW 2 mph 4 mph 97 % 0 in
04:52 58.5 °F 57.6 °F 30 in SSW 1 mph 4 mph 97 % 0 in
04:57 58.3 °F 57.4 °F 30 in SSW 2 mph 3 mph 97 % 0 in
05:02 57.9 °F 57 °F 30 in SSW 2 mph 3 mph 97 % 0 in
05:07 57.9 °F 57 °F 30 in Calm   4 mph 97 % 0 in
05:12 57.7 °F 56.8 °F 30 in WSW 2 mph 4 mph 97 % 0 in
05:17 57.7 °F 56.8 °F 30 in SW 1 mph 3 mph 97 % 0 in
05:22 57.7 °F 56.8 °F 30 in SW 1 mph 3 mph 97 % 0 in
05:32 57.6 °F 56.7 °F 30 in Calm   2 mph 97 % 0 in
05:37 57.6 °F 56.7 °F 30 in Calm   2 mph 97 % 0 in
05:42 57.6 °F 56.7 °F 30 in SSW 2 mph 2 mph 97 % 0 in
05:47 57.6 °F 56.7 °F 30 in SW 2 mph 4 mph 97 % 0 in
05:52 57.6 °F 56.7 °F 30 in SW 7 mph 7 mph 97 % 0 in
05:57 57.6 °F 56.5 °F 30 in SW 1 mph 8 mph 96 % 0 in
06:02 57.7 °F 56.7 °F 30 in Calm   8 mph 96 % 0 in
06:12 57.9 °F 56.8 °F 30 in West 3 mph 8 mph 96 % 0 in
06:17 57.9 °F 56.5 °F 30 in SSW 1 mph 6 mph 95 % 0 in
06:22 57.9 °F 56.5 °F 30 in WSW 3 mph 6 mph 95 % 0 in
06:27 58.1 °F 56.7 °F 30 in SSW 3 mph 7 mph 95 % 0 in
06:32 58.1 °F 56.3 °F 30 in SW 5 mph 7 mph 94 % 0 in
06:42 57.9 °F 56.1 °F 30 in SSW 3 mph 7 mph 94 % 0 in
06:52 57.7 °F 56.3 °F 30 in SW 4 mph 6 mph 95 % 0 in
07:02 57.9 °F 56.5 °F 30 in West 4 mph 7 mph 95 % 0 in
07:12 57.9 °F 56.5 °F 30 in West 5 mph 8 mph 95 % 0 in
07:17 58.3 °F 56.8 °F 30 in West 7 mph 8 mph 95 % 0 in
07:22 58.3 °F 56.8 °F 30 in West 3 mph 8 mph 95 % 0 in
07:32 58.5 °F 56.7 °F 30 in WSW 5 mph 8 mph 94 % 0 in
07:37 58.5 °F 56.7 °F 30 in WSW 4 mph 8 mph 94 % 0 in
07:42 58.6 °F 56.8 °F 30 in WNW 5 mph 8 mph 94 % 0 in
07:47 58.6 °F 56.8 °F 30 in West 4 mph 8 mph 94 % 0 in
07:52 58.6 °F 56.8 °F 30 in West 2 mph 8 mph 94 % 0 in
08:02 58.8 °F 57 °F 30 in SSW 3 mph 8 mph 94 % 0 in
08:07 59 °F 57.2 °F 30 in WSW 5 mph 9 mph 94 % 0 in
08:12 59 °F 57.2 °F 30 in SW 3 mph 9 mph 94 % 0 in
08:17 59 °F 57.2 °F 30 in SW 4 mph 8 mph 94 % 0 in
08:22 59 °F 57.2 °F 30 in SW 6 mph 8 mph 94 % 0 in
08:27 59 °F 57.2 °F 30 in SW 3 mph 9 mph 94 % 0 in
08:32 59 °F 57.2 °F 30 in WSW 3 mph 9 mph 94 % 0 in
08:37 59.2 °F 57.4 °F 30 in SW 2 mph 8 mph 94 % 0 in
08:42 59.2 °F 57.4 °F 30 in SW 2 mph 8 mph 94 % 0 in
08:47 59.4 °F 57.6 °F 30 in SW 1 mph 7 mph 94 % 0 in
08:52 59.2 °F 57.4 °F 30 in West 2 mph 7 mph 94 % 0 in
08:57 59.2 °F 57.4 °F 30 in SW 3 mph 4 mph 94 % 0 in
09:02 59.4 °F 57.6 °F 30 in WSW 1 mph 4 mph 94 % 0 in
09:12 59.5 °F 57.7 °F 30 in SW 1 mph 5 mph 94 % 0 in
09:17 59.4 °F 57.6 °F 30 in SW 2 mph 8 mph 94 % 0 in
09:27 59.4 °F 57.4 °F 30 in SSW 1 mph 8 mph 93 % 0 in
09:32 59.4 °F 57.4 °F 30 in SW 4 mph 8 mph 93 % 0 in
09:42 59.5 °F 57.6 °F 30 in Calm   6 mph 93 % 0 in
09:47 59.7 °F 57.9 °F 30 in South 1 mph 5 mph 94 % 0 in
09:52 59.9 °F 58.1 °F 30 in SW 4 mph 5 mph 94 % 0 in
09:57 59.9 °F 57.9 °F 30 in WSW 3 mph 7 mph 93 % 0 in
10:02 59.9 °F 57.9 °F 30 in WSW 4 mph 7 mph 93 % 0 in
10:12 60.1 °F 58.1 °F 30 in SW 3 mph 9 mph 93 % 0 in
10:17 60.4 °F 58.1 °F 30 in SSW 2 mph 8 mph 92 % 0 in
10:22 60.6 °F 58.3 °F 30 in SSW 5 mph 8 mph 92 % 0 in
10:32 60.4 °F 57.6 °F 30 in WSW 5 mph 7 mph 90 % 0 in
10:37 60.4 °F 57.6 °F 30 in WSW 3 mph 11 mph 90 % 0 in
10:42 60.6 °F 57.7 °F 30 in SW 5 mph 11 mph 90 % 0 in
10:47 60.6 °F 57.7 °F 30 in SSW 2 mph 12 mph 90 % 0 in
10:52 61 °F 58.1 °F 30 in WSW 4 mph 12 mph 90 % 0 in
10:57 61 °F 57.7 °F 30 in SW 8 mph 12 mph 89 % 0 in
11:02 61.2 °F 57.9 °F 30 in WSW 7 mph 12 mph 89 % 0 in
11:12 61.3 °F 57.7 °F 30.1 in SW 6 mph 10 mph 88 % 0 in
11:17 61.5 °F 57.9 °F 30.1 in SSW 5 mph 11 mph 88 % 0 in
11:22 61.9 °F 58.3 °F 30 in SSW 6 mph 11 mph 88 % 0 in
11:32 62.2 °F 58.3 °F 30 in SW 5 mph 10 mph 87 % 0 in
11:37 62.8 °F 58.8 °F 30 in South 3 mph 11 mph 87 % 0 in
11:42 62.6 °F 58.1 °F 30 in SW 8 mph 11 mph 85 % 0 in
11:47 63.1 °F 58.8 °F 30 in SSW 10 mph 12 mph 86 % 0 in
11:52 63.7 °F 58.8 °F 30 in WSW 6 mph 12 mph 84 % 0 in
12:02 64.8 °F 58.5 °F 30 in SSW 5 mph 16 mph 80 % 0 in
12:12 64.9 °F 58.3 °F 30 in SSW 8 mph 14 mph 79 % 0 in
12:17 65.1 °F 58.8 °F 30 in SSW 8 mph 14 mph 80 % 0 in
12:22 65.3 °F 59.4 °F 30 in WSW 5 mph 14 mph 81 % 0 in
12:32 65.5 °F 58.8 °F 30 in West 5 mph 11 mph 79 % 0 in
12:42 66 °F 58.3 °F 30 in West 7 mph 12 mph 76 % 0 in
12:47 66.6 °F 58.8 °F 30 in West 3 mph 12 mph 76 % 0 in
12:57 66 °F 58.3 °F 30 in WSW 10 mph 12 mph 76 % 0 in
13:02 66 °F 58.3 °F 30 in WSW 3 mph 12 mph 76 % 0 in
13:12 66.6 °F 58.5 °F 30 in WSW 6 mph 10 mph 75 % 0 in
13:17 66.7 °F 58.1 °F 30 in SW 10 mph 14 mph 74 % 0 in
13:22 67.3 °F 58.6 °F 30 in WSW 7 mph 14 mph 74 % 0 in
13:32 67.1 °F 58.5 °F 30 in SSW 3 mph 11 mph 74 % 0 in
13:42 67.8 °F 58.8 °F 30 in SSW 9 mph 11 mph 73 % 0 in
13:47 67.8 °F 59.2 °F 30 in SW 7 mph 11 mph 74 % 0 in
13:52 68.2 °F 59.2 °F 30 in SSW 6 mph 13 mph 73 % 0 in
13:57 68.2 °F 59.2 °F 30 in SSW 3 mph 13 mph 73 % 0 in
14:02 68.4 °F 58.6 °F 30 in SW 8 mph 13 mph 71 % 0 in
14:12 69.1 °F 58.5 °F 30 in West 5 mph 15 mph 69 % 0 in
14:17 69.8 °F 57.9 °F 30 in South 3 mph 16 mph 66 % 0 in
14:22 70.2 °F 58.6 °F 30 in SW 11 mph 16 mph 67 % 0 in
14:27 70.2 °F 58.6 °F 30 in West 5 mph 16 mph 67 % 0 in
14:32 70.5 °F 59.9 °F 30 in West 7 mph 15 mph 69 % 0 in
14:37 69.8 °F 58.3 °F 30 in SW 9 mph 18 mph 67 % 0 in
14:42 69.6 °F 59 °F 30 in West 8 mph 18 mph 69 % 0 in
14:47 69.8 °F 57.9 °F 30 in West 6 mph 18 mph 66 % 0 in
14:52 69.6 °F 57.7 °F 30 in SSE 5 mph 16 mph 66 % 0 in
14:57 70.3 °F 58.5 °F 30 in South 8 mph 16 mph 66 % 0 in
15:02 70.5 °F 58.1 °F 30 in SW 6 mph 16 mph 65 % 0 in
15:12 71.1 °F 57.4 °F 30 in West 10 mph 17 mph 62 % 0 in
15:17 71.2 °F 57 °F 30 in West 11 mph 17 mph 61 % 0 in
15:22 71.4 °F 56.8 °F 30 in WSW 9 mph 17 mph 60 % 0 in
15:27 71.1 °F 57.4 °F 30 in WSW 6 mph 17 mph 62 % 0 in
15:32 71.2 °F 58.8 °F 30 in SSW 7 mph 17 mph 65 % 0 in
15:37 71.2 °F 56.7 °F 30 in West 7 mph 16 mph 60 % 0 in
15:42 71.2 °F 57 °F 30 in SW 8 mph 16 mph 61 % 0 in
15:52 72.1 °F 57.6 °F 30 in SSE 14 mph 16 mph 60 % 0 in
15:57 72 °F 56.3 °F 30 in SW 7 mph 14 mph 58 % 0 in
16:02 72.1 °F 57.6 °F 30 in SW 3 mph 17 mph 60 % 0 in
16:07 72.5 °F 58.3 °F 30 in WSW 8 mph 17 mph 61 % 0 in
16:12 72.3 °F 56.7 °F 30 in SW 10 mph 14 mph 58 % 0 in
16:17 72.5 °F 56.8 °F 30 in West 7 mph 13 mph 58 % 0 in
16:22 72.7 °F 57.6 °F 30 in SW 8 mph 14 mph 59 % 0 in
16:32 72.9 °F 56.3 °F 30 in SW 8 mph 16 mph 56 % 0 in
16:37 72.7 °F 56.1 °F 30 in WSW 5 mph 16 mph 56 % 0 in
16:42 72.1 °F 56.1 °F 30 in WSW 6 mph 15 mph 57 % 0 in
16:47 72.1 °F 56.1 °F 30 in West 4 mph 15 mph 57 % 0 in
16:52 72.7 °F 56.1 °F 30 in SW 11 mph 12 mph 56 % 0 in
16:57 72.7 °F 56.1 °F 30 in South 9 mph 15 mph 56 % 0 in
17:02 73.2 °F 57.6 °F 30 in SW 8 mph 15 mph 58 % 0 in
17:07 73.2 °F 56.1 °F 30 in West 9 mph 16 mph 55 % 0 in
17:12 73.8 °F 56.1 °F 30 in WSW 11 mph 16 mph 54 % 0 in
17:17 73.4 °F 55.2 °F 30 in SW 5 mph 16 mph 53 % 0 in
17:22 73.2 °F 56.1 °F 30 in WSW 6 mph 16 mph 55 % 0 in
17:32 73.8 °F 57 °F 30 in SSW 8 mph 16 mph 56 % 0 in
17:42 73 °F 55.9 °F 30 in South 3 mph 14 mph 55 % 0 in
17:52 73.4 °F 56.3 °F 30 in SSW 5 mph 16 mph 55 % 0 in
18:02 73.6 °F 55.4 °F 30 in SW 5 mph 15 mph 53 % 0 in
18:12 73.4 °F 55.2 °F 30 in SW 11 mph 20 mph 53 % 0 in
18:17 73.6 °F 55.9 °F 30 in SW 17 mph 20 mph 54 % 0 in
18:22 73 °F 55.4 °F 30 in SW 6 mph 20 mph 54 % 0 in
18:32 73.2 °F 54.5 °F 30 in WSW 11 mph 17 mph 52 % 0 in
18:42 73.2 °F 54 °F 30 in SW 5 mph 17 mph 51 % 0 in
18:47 73.2 °F 54 °F 30 in SW 4 mph 17 mph 51 % 0 in
18:52 73.6 °F 53.8 °F 30 in WSW 10 mph 17 mph 50 % 0 in
18:57 73.6 °F 54.3 °F 30 in SW 11 mph 14 mph 51 % 0 in
19:02 73.6 °F 54.3 °F 30 in West 2 mph 14 mph 51 % 0 in
19:12 73.4 °F 53.6 °F 30 in WSW 9 mph 14 mph 50 % 0 in
19:22 73.2 °F 54.5 °F 30 in WSW 8 mph 14 mph 52 % 0 in
19:27 73.6 °F 54.3 °F 30 in SW 6 mph 18 mph 51 % 0 in
19:32 73.6 °F 54.9 °F 30 in WSW 5 mph 18 mph 52 % 0 in
19:42 73.4 °F 54.7 °F 30 in SW 7 mph 14 mph 52 % 0 in
19:47 73.2 °F 54.5 °F 30 in WSW 11 mph 15 mph 52 % 0 in
19:52 73 °F 53.8 °F 30 in SW 10 mph 18 mph 51 % 0 in
19:57 73 °F 54.3 °F 30 in West 8 mph 18 mph 52 % 0 in
20:02 72.9 °F 53.6 °F 30 in SW 12 mph 18 mph 51 % 0 in
20:12 72.9 °F 54.1 °F 30 in South 4 mph 15 mph 52 % 0 in
20:17 72.7 °F 54 °F 30 in WSW 6 mph 14 mph 52 % 0 in
20:22 72.7 °F 54.5 °F 30 in WSW 10 mph 14 mph 53 % 0 in
20:32 72.9 °F 54.7 °F 30 in SW 8 mph 17 mph 53 % 0 in
20:37 72.7 °F 55 °F 30 in SW 8 mph 17 mph 54 % 0 in
20:42 72.9 °F 55.2 °F 30 in SW 4 mph 14 mph 54 % 0 in
20:47 72.9 °F 54.7 °F 30 in West 10 mph 14 mph 53 % 0 in
20:52 72.7 °F 55 °F 30 in WSW 9 mph 14 mph 54 % 0 in
21:02 71.8 °F 54.7 °F 30 in WSW 5 mph 13 mph 55 % 0 in
21:12 71.2 °F 55.2 °F 30 in SW 2 mph 8 mph 57 % 0 in
21:17 71.1 °F 55 °F 30 in WSW 3 mph 7 mph 57 % 0 in
21:22 70.9 °F 55.4 °F 30 in SW 3 mph 5 mph 58 % 0 in
21:27 70.7 °F 55.2 °F 30 in SW 3 mph 7 mph 58 % 0 in
21:32 70.5 °F 55.6 °F 30 in WSW 4 mph 7 mph 59 % 0 in
21:42 70.2 °F 55.6 °F 30 in SW 3 mph 7 mph 60 % 0 in
21:47 70 °F 55.9 °F 30 in SW 4 mph 6 mph 61 % 0 in
21:57 69.1 °F 55.9 °F 30 in South 3 mph 6 mph 63 % 0 in
22:02 68.5 °F 55.9 °F 30 in SSW 2 mph 5 mph 64 % 0 in
22:07 68.2 °F 55.9 °F 30 in SW 3 mph 4 mph 65 % 0 in
22:12 68 °F 56.3 °F 30 in SSW 3 mph 4 mph 66 % 0 in
22:17 67.8 °F 56.1 °F 30 in SSW 3 mph 5 mph 66 % 0 in
22:22 67.8 °F 56.5 °F 30 in SSW 3 mph 5 mph 67 % 0 in
22:27 67.6 °F 56.3 °F 30 in SW 3 mph 4 mph 67 % 0 in
22:32 67.6 °F 56.7 °F 30 in SW 4 mph 7 mph 68 % 0 in
22:37 67.5 °F 57 °F 30 in SSW 5 mph 7 mph 69 % 0 in
22:42 67.3 °F 56.8 °F 30 in SSW 2 mph 7 mph 69 % 0 in
22:47 66.9 °F 56.5 °F 30 in SSW 3 mph 6 mph 69 % 0 in
22:52 66.9 °F 56.8 °F 30 in South 2 mph 5 mph 70 % 0 in
22:57 66.7 °F 57 °F 30 in SSW 2 mph 4 mph 71 % 0 in
23:07 66.6 °F 56.8 °F 30 in SSW 2 mph 4 mph 71 % 0 in
23:12 66.7 °F 57 °F 30 in SW 3 mph 4 mph 71 % 0 in
23:17 66.7 °F 57 °F 30 in SSW 2 mph 4 mph 71 % 0 in
23:22 66.7 °F 57.4 °F 30 in SSW 2 mph 4 mph 72 % 0 in
23:27 66.7 °F 57.4 °F 30 in SSW 3 mph 5 mph 72 % 0 in
23:32 66.6 °F 57.2 °F 30 in SSW 2 mph 5 mph 72 % 0 in
23:37 66.6 °F 57.2 °F 30 in WSW 2 mph 5 mph 72 % 0 in
23:42 66.6 °F 57.2 °F 30 in SW 4 mph 5 mph 72 % 0 in
23:47 66.4 °F 57.4 °F 30 in SSW 2 mph 6 mph 73 % 0 in
23:52 66 °F 57.2 °F 30 in SSW 4 mph 6 mph 73 % 0 in
23:57 65.8 °F 57.4 °F 30 in SSW 1 mph 6 mph 74 % 0 in
Meteo18
Compliments of Weather Underground - 4 mb

Script developed by  Jim McMurry - jmcmurry@mwt.net Adapted for the template by  Wim van der Kuil - Leuven-Template.eu

You find our weather info also at:

European Weather Network

Weather Underground

Equipment we use:

Weather-station
Davis Vue

Weather-program
Meteohub

Weather-server
Raspberry PI 2 B+

Provider
1 and 1

Davis Vue

Meteohub

Raspberry PI 2 B+

1 and 1